sensor_id;sensor_type;location;lat;lon;timestamp;pressure;altitude;pressure_sealevel;temperature;humidity
50854;BME280;44154;45.506;-122.806;2023-04-20T00:00:33;101493.72;;;25.18;32.28
50854;BME280;44154;45.506;-122.806;2023-04-20T00:03:00;101513.84;;;25.36;31.95
50854;BME280;44154;45.506;-122.806;2023-04-20T00:05:26;101495.75;;;25.23;31.98
50854;BME280;44154;45.506;-122.806;2023-04-20T00:07:53;101510.94;;;25.31;32.19
50854;BME280;44154;45.506;-122.806;2023-04-20T00:10:19;101520.53;;;25.16;32.20
50854;BME280;44154;45.506;-122.806;2023-04-20T00:12:46;101501.75;;;24.96;32.49
50854;BME280;44154;45.506;-122.806;2023-04-20T00:15:12;101514.63;;;24.96;32.78
50854;BME280;44154;45.506;-122.806;2023-04-20T00:17:38;101487.94;;;24.79;32.54
50854;BME280;44154;45.506;-122.806;2023-04-20T00:20:05;101500.69;;;24.85;32.75
50854;BME280;44154;45.506;-122.806;2023-04-20T00:22:32;101509.66;;;24.81;32.82
50854;BME280;44154;45.506;-122.806;2023-04-20T00:24:58;101509.97;;;24.84;33.01
50854;BME280;44154;45.506;-122.806;2023-04-20T00:27:25;101489.78;;;24.73;32.74
50854;BME280;44154;45.506;-122.806;2023-04-20T00:29:51;101519.25;;;24.83;32.64
50854;BME280;44154;45.506;-122.806;2023-04-20T00:32:17;101513.19;;;24.81;32.78
50854;BME280;44154;45.506;-122.806;2023-04-20T00:34:43;101523.19;;;24.87;32.69
50854;BME280;44154;45.506;-122.806;2023-04-20T00:37:10;101513.78;;;24.83;32.79
50854;BME280;44154;45.506;-122.806;2023-04-20T00:39:36;101507.63;;;24.64;32.41
50854;BME280;44154;45.506;-122.806;2023-04-20T00:42:06;101502.00;;;24.59;32.40
50854;BME280;44154;45.506;-122.806;2023-04-20T00:44:33;101528.22;;;24.67;32.33
50854;BME280;44154;45.506;-122.806;2023-04-20T00:47:00;101529.72;;;24.86;32.61
50854;BME280;44154;45.506;-122.806;2023-04-20T00:49:30;101521.03;;;25.01;32.29
50854;BME280;44154;45.506;-122.806;2023-04-20T00:52:00;101532.41;;;25.34;31.72
50854;BME280;44154;45.506;-122.806;2023-04-20T00:54:29;101524.06;;;25.40;31.84
50854;BME280;44154;45.506;-122.806;2023-04-20T00:56:57;101539.00;;;25.33;31.64
50854;BME280;44154;45.506;-122.806;2023-04-20T00:59:24;101525.78;;;25.06;31.07
50854;BME280;44154;45.506;-122.806;2023-04-20T01:01:50;101539.63;;;24.87;29.28
50854;BME280;44154;45.506;-122.806;2023-04-20T01:04:17;101535.19;;;24.51;28.73
50854;BME280;44154;45.506;-122.806;2023-04-20T01:06:43;101550.09;;;24.67;30.59
50854;BME280;44154;45.506;-122.806;2023-04-20T01:09:10;101542.00;;;24.96;29.96
50854;BME280;44154;45.506;-122.806;2023-04-20T01:11:37;101563.00;;;25.31;29.36
50854;BME280;44154;45.506;-122.806;2023-04-20T01:14:04;101551.63;;;25.62;29.15
50854;BME280;44154;45.506;-122.806;2023-04-20T01:16:30;101548.59;;;25.76;27.08
50854;BME280;44154;45.506;-122.806;2023-04-20T01:18:56;101561.91;;;25.55;26.18
50854;BME280;44154;45.506;-122.806;2023-04-20T01:21:23;101548.13;;;25.26;26.00
50854;BME280;44154;45.506;-122.806;2023-04-20T01:23:49;101544.84;;;25.01;25.91
50854;BME280;44154;45.506;-122.806;2023-04-20T01:26:17;101567.94;;;24.93;26.16
50854;BME280;44154;45.506;-122.806;2023-04-20T01:28:44;101576.41;;;24.68;26.46
50854;BME280;44154;45.506;-122.806;2023-04-20T01:31:11;101577.44;;;24.55;27.53
50854;BME280;44154;45.506;-122.806;2023-04-20T01:33:38;101575.69;;;24.84;27.88
50854;BME280;44154;45.506;-122.806;2023-04-20T01:36:06;101584.50;;;25.10;27.96
50854;BME280;44154;45.506;-122.806;2023-04-20T01:38:33;101586.16;;;25.35;28.36
50854;BME280;44154;45.506;-122.806;2023-04-20T01:41:00;101583.81;;;25.55;28.23
50854;BME280;44154;45.506;-122.806;2023-04-20T01:43:27;101593.44;;;25.70;28.59
50854;BME280;44154;45.506;-122.806;2023-04-20T01:45:53;101600.59;;;25.71;28.88
50854;BME280;44154;45.506;-122.806;2023-04-20T01:48:19;101598.84;;;25.65;28.91
50854;BME280;44154;45.506;-122.806;2023-04-20T01:50:49;101607.06;;;25.65;28.51
50854;BME280;44154;45.506;-122.806;2023-04-20T01:53:16;101600.09;;;25.74;28.50
50854;BME280;44154;45.506;-122.806;2023-04-20T01:55:42;101608.44;;;25.79;28.73
50854;BME280;44154;45.506;-122.806;2023-04-20T01:58:08;101612.38;;;25.83;28.57
50854;BME280;44154;45.506;-122.806;2023-04-20T02:00:34;101618.41;;;25.85;28.79
50854;BME280;44154;45.506;-122.806;2023-04-20T02:03:01;101610.81;;;25.87;28.90
50854;BME280;44154;45.506;-122.806;2023-04-20T02:05:27;101609.88;;;25.82;29.00
50854;BME280;44154;45.506;-122.806;2023-04-20T02:07:53;101619.03;;;25.87;29.00
50854;BME280;44154;45.506;-122.806;2023-04-20T02:10:19;101622.47;;;25.83;28.74
50854;BME280;44154;45.506;-122.806;2023-04-20T02:12:48;101635.38;;;25.82;29.23
50854;BME280;44154;45.506;-122.806;2023-04-20T02:15:14;101632.75;;;25.75;29.36
50854;BME280;44154;45.506;-122.806;2023-04-20T02:17:40;101643.97;;;25.74;29.54
50854;BME280;44154;45.506;-122.806;2023-04-20T02:20:07;101649.22;;;25.75;29.30
50854;BME280;44154;45.506;-122.806;2023-04-20T02:22:34;101654.19;;;25.78;29.21
50854;BME280;44154;45.506;-122.806;2023-04-20T02:25:01;101654.44;;;25.77;29.44
50854;BME280;44154;45.506;-122.806;2023-04-20T02:27:28;101658.88;;;25.78;29.59
50854;BME280;44154;45.506;-122.806;2023-04-20T02:29:54;101645.78;;;25.68;29.52
50854;BME280;44154;45.506;-122.806;2023-04-20T02:32:20;101651.25;;;25.68;29.84
50854;BME280;44154;45.506;-122.806;2023-04-20T02:34:47;101649.50;;;25.62;30.24
50854;BME280;44154;45.506;-122.806;2023-04-20T02:37:13;101648.53;;;25.56;30.23
50854;BME280;44154;45.506;-122.806;2023-04-20T02:39:39;101657.63;;;25.45;30.59
50854;BME280;44154;45.506;-122.806;2023-04-20T02:42:05;101664.78;;;25.46;31.74
50854;BME280;44154;45.506;-122.806;2023-04-20T02:44:31;101648.59;;;25.33;30.45
50854;BME280;44154;45.506;-122.806;2023-04-20T02:46:58;101670.38;;;25.39;30.26
50854;BME280;44154;45.506;-122.806;2023-04-20T02:49:24;101673.09;;;25.27;32.94
50854;BME280;44154;45.506;-122.806;2023-04-20T02:51:50;101674.06;;;25.45;33.55
50854;BME280;44154;45.506;-122.806;2023-04-20T02:54:16;101662.38;;;25.61;33.44
50854;BME280;44154;45.506;-122.806;2023-04-20T02:56:42;101684.16;;;25.80;33.50
50854;BME280;44154;45.506;-122.806;2023-04-20T02:59:09;101691.03;;;25.83;33.14
50854;BME280;44154;45.506;-122.806;2023-04-20T03:01:35;101670.19;;;25.70;32.89
50854;BME280;44154;45.506;-122.806;2023-04-20T03:04:02;101690.81;;;25.72;34.19
50854;BME280;44154;45.506;-122.806;2023-04-20T03:06:29;101690.81;;;25.72;32.94
50854;BME280;44154;45.506;-122.806;2023-04-20T03:08:55;101690.50;;;25.69;32.52
50854;BME280;44154;45.506;-122.806;2023-04-20T03:11:21;101693.09;;;25.63;32.64
50854;BME280;44154;45.506;-122.806;2023-04-20T03:13:47;101697.03;;;25.68;32.27
50854;BME280;44154;45.506;-122.806;2023-04-20T03:16:13;101693.09;;;25.63;32.47
50854;BME280;44154;45.506;-122.806;2023-04-20T03:18:40;101690.28;;;25.58;32.41
50854;BME280;44154;45.506;-122.806;2023-04-20T03:21:06;101696.56;;;25.59;32.41
50854;BME280;44154;45.506;-122.806;2023-04-20T03:23:32;101702.19;;;25.52;32.60
50854;BME280;44154;45.506;-122.806;2023-04-20T03:25:58;101695.75;;;25.47;32.86
50854;BME280;44154;45.506;-122.806;2023-04-20T03:28:26;101700.28;;;25.41;32.74
50854;BME280;44154;45.506;-122.806;2023-04-20T03:30:52;101712.09;;;25.41;31.93
50854;BME280;44154;45.506;-122.806;2023-04-20T03:33:18;101710.41;;;25.40;32.18
50854;BME280;44154;45.506;-122.806;2023-04-20T03:35:44;101713.38;;;25.39;33.09
50854;BME280;44154;45.506;-122.806;2023-04-20T03:38:10;101717.09;;;25.33;33.13
50854;BME280;44154;45.506;-122.806;2023-04-20T03:40:37;101707.09;;;25.38;33.01
50854;BME280;44154;45.506;-122.806;2023-04-20T03:43:03;101728.47;;;25.77;32.57
50854;BME280;44154;45.506;-122.806;2023-04-20T03:45:29;101734.22;;;25.87;31.74
50854;BME280;44154;45.506;-122.806;2023-04-20T03:47:55;101733.59;;;25.85;31.98
50854;BME280;44154;45.506;-122.806;2023-04-20T03:50:21;101736.25;;;25.80;31.81
50854;BME280;44154;45.506;-122.806;2023-04-20T03:52:47;101746.28;;;25.74;31.97
50854;BME280;44154;45.506;-122.806;2023-04-20T03:55:14;101744.13;;;25.65;32.17
50854;BME280;44154;45.506;-122.806;2023-04-20T03:57:40;101756.28;;;25.69;32.03
50854;BME280;44154;45.506;-122.806;2023-04-20T04:00:06;101715.66;;;25.42;31.65
50854;BME280;44154;45.506;-122.806;2023-04-20T04:02:35;101772.75;;;25.69;31.57
50854;BME280;44154;45.506;-122.806;2023-04-20T04:05:01;101764.13;;;25.65;31.56
50854;BME280;44154;45.506;-122.806;2023-04-20T04:07:27;101769.03;;;25.63;31.62
50854;BME280;44154;45.506;-122.806;2023-04-20T04:09:54;101775.34;;;25.63;31.39
50854;BME280;44154;45.506;-122.806;2023-04-20T04:12:20;101766.16;;;25.58;31.10
50854;BME280;44154;45.506;-122.806;2023-04-20T04:14:46;101763.78;;;25.50;31.41
50854;BME280;44154;45.506;-122.806;2023-04-20T04:17:15;101777.28;;;25.51;31.86
50854;BME280;44154;45.506;-122.806;2023-04-20T04:19:42;101779.06;;;25.45;32.11
50854;BME280;44154;45.506;-122.806;2023-04-20T04:22:08;101772.97;;;25.32;32.57
50854;BME280;44154;45.506;-122.806;2023-04-20T04:24:34;101791.94;;;25.69;32.32
50854;BME280;44154;45.506;-122.806;2023-04-20T04:27:03;101795.59;;;25.86;31.55
50854;BME280;44154;45.506;-122.806;2023-04-20T04:29:30;101790.13;;;25.86;31.28
50854;BME280;44154;45.506;-122.806;2023-04-20T04:32:01;101797.03;;;25.89;31.15
50854;BME280;44154;45.506;-122.806;2023-04-20T04:34:28;101776.66;;;25.73;31.27
50854;BME280;44154;45.506;-122.806;2023-04-20T04:36:55;101803.00;;;25.74;31.38
50854;BME280;44154;45.506;-122.806;2023-04-20T04:39:21;101806.56;;;25.62;31.64
50854;BME280;44154;45.506;-122.806;2023-04-20T04:41:48;101792.28;;;25.49;31.65
50854;BME280;44154;45.506;-122.806;2023-04-20T04:44:14;101806.09;;;25.54;31.48
50854;BME280;44154;45.506;-122.806;2023-04-20T04:46:41;101814.53;;;25.40;31.38
50854;BME280;44154;45.506;-122.806;2023-04-20T04:49:10;101806.19;;;25.35;31.48
50854;BME280;44154;45.506;-122.806;2023-04-20T04:51:36;101815.25;;;25.36;31.42
50854;BME280;44154;45.506;-122.806;2023-04-20T04:54:03;101811.03;;;25.21;31.41
50854;BME280;44154;45.506;-122.806;2023-04-20T04:56:29;101819.97;;;25.17;31.47
50854;BME280;44154;45.506;-122.806;2023-04-20T04:58:55;101834.25;;;25.19;32.41
50854;BME280;44154;45.506;-122.806;2023-04-20T05:01:21;101821.03;;;25.27;33.14
50854;BME280;44154;45.506;-122.806;2023-04-20T05:03:48;101827.91;;;25.60;33.87
50854;BME280;44154;45.506;-122.806;2023-04-20T05:06:14;101829.47;;;25.80;33.59
50854;BME280;44154;45.506;-122.806;2023-04-20T05:08:40;101824.09;;;25.97;32.35
50854;BME280;44154;45.506;-122.806;2023-04-20T05:11:06;101826.75;;;26.04;31.87
50854;BME280;44154;45.506;-122.806;2023-04-20T05:13:32;101832.06;;;25.98;31.24
50854;BME280;44154;45.506;-122.806;2023-04-20T05:15:58;101839.34;;;25.81;32.59
50854;BME280;44154;45.506;-122.806;2023-04-20T05:18:25;101830.19;;;25.63;32.33
50854;BME280;44154;45.506;-122.806;2023-04-20T05:20:51;101840.19;;;25.46;32.46
50854;BME280;44154;45.506;-122.806;2023-04-20T05:23:18;101826.69;;;25.33;32.81
50854;BME280;44154;45.506;-122.806;2023-04-20T05:25:44;101840.16;;;25.34;32.82
50854;BME280;44154;45.506;-122.806;2023-04-20T05:28:10;101808.63;;;25.13;32.91
50854;BME280;44154;45.506;-122.806;2023-04-20T05:30:36;101831.28;;;25.20;32.95
50854;BME280;44154;45.506;-122.806;2023-04-20T05:33:03;101811.94;;;25.03;33.03
50854;BME280;44154;45.506;-122.806;2023-04-20T05:35:29;101829.34;;;25.09;32.85
50854;BME280;44154;45.506;-122.806;2023-04-20T05:37:55;101838.66;;;25.08;33.12
50854;BME280;44154;45.506;-122.806;2023-04-20T05:40:25;101833.34;;;24.94;32.94
50854;BME280;44154;45.506;-122.806;2023-04-20T05:42:51;101839.94;;;25.05;34.04
50854;BME280;44154;45.506;-122.806;2023-04-20T05:45:17;101830.28;;;25.03;34.71
50854;BME280;44154;45.506;-122.806;2023-04-20T05:47:54;101855.06;;;25.38;34.02
50854;BME280;44154;45.506;-122.806;2023-04-20T05:50:22;101860.94;;;25.66;34.91
50854;BME280;44154;45.506;-122.806;2023-04-20T05:52:49;101857.34;;;25.65;33.36
50854;BME280;44154;45.506;-122.806;2023-04-20T05:55:16;101858.31;;;25.59;32.61
50854;BME280;44154;45.506;-122.806;2023-04-20T05:57:43;101855.09;;;25.50;32.35
50854;BME280;44154;45.506;-122.806;2023-04-20T06:00:15;101841.13;;;25.40;32.18
50854;BME280;44154;45.506;-122.806;2023-04-20T06:02:42;101869.34;;;25.40;32.36
50854;BME280;44154;45.506;-122.806;2023-04-20T06:05:09;101862.31;;;25.33;32.60
50854;BME280;44154;45.506;-122.806;2023-04-20T06:07:36;101836.72;;;25.08;32.54
50854;BME280;44154;45.506;-122.806;2023-04-20T06:10:04;101863.31;;;25.20;32.59
50854;BME280;44154;45.506;-122.806;2023-04-20T06:12:30;101872.69;;;25.12;32.62
50854;BME280;44154;45.506;-122.806;2023-04-20T06:14:57;101878.06;;;25.07;32.77
50854;BME280;44154;45.506;-122.806;2023-04-20T06:17:23;101870.31;;;25.04;32.75
50854;BME280;44154;45.506;-122.806;2023-04-20T06:19:50;101875.03;;;24.97;32.63
50854;BME280;44154;45.506;-122.806;2023-04-20T06:22:16;101853.53;;;24.82;32.56
50854;BME280;44154;45.506;-122.806;2023-04-20T06:24:43;101868.50;;;24.79;32.72
50854;BME280;44154;45.506;-122.806;2023-04-20T06:27:09;101888.28;;;24.81;32.56
50854;BME280;44154;45.506;-122.806;2023-04-20T06:29:36;101889.50;;;24.85;32.61
50854;BME280;44154;45.506;-122.806;2023-04-20T06:32:03;101884.81;;;24.74;32.57
50854;BME280;44154;45.506;-122.806;2023-04-20T06:34:29;101898.63;;;24.79;32.57
50854;BME280;44154;45.506;-122.806;2023-04-20T06:36:56;101909.44;;;24.74;32.65
50854;BME280;44154;45.506;-122.806;2023-04-20T06:39:22;101909.44;;;24.74;32.60
50854;BME280;44154;45.506;-122.806;2023-04-20T06:41:50;101909.91;;;24.71;32.30
50854;BME280;44154;45.506;-122.806;2023-04-20T06:44:16;101908.06;;;24.65;32.44
50854;BME280;44154;45.506;-122.806;2023-04-20T06:46:42;101906.22;;;24.58;32.39
50854;BME280;44154;45.506;-122.806;2023-04-20T06:49:09;101907.50;;;24.56;32.51
50854;BME280;44154;45.506;-122.806;2023-04-20T06:51:35;101887.16;;;24.33;32.55
50854;BME280;44154;45.506;-122.806;2023-04-20T06:54:01;101922.50;;;24.72;32.72
50854;BME280;44154;45.506;-122.806;2023-04-20T06:56:27;101918.69;;;24.91;33.26
50854;BME280;44154;45.506;-122.806;2023-04-20T06:58:53;101911.66;;;25.14;32.54
50854;BME280;44154;45.506;-122.806;2023-04-20T07:01:19;101919.63;;;25.34;32.46
50854;BME280;44154;45.506;-122.806;2023-04-20T07:03:46;101917.66;;;25.23;32.11
50854;BME280;44154;45.506;-122.806;2023-04-20T07:06:12;101934.78;;;25.18;32.37
50854;BME280;44154;45.506;-122.806;2023-04-20T07:08:38;101930.22;;;25.12;32.30
50854;BME280;44154;45.506;-122.806;2023-04-20T07:11:05;101919.22;;;25.00;32.41
50854;BME280;44154;45.506;-122.806;2023-04-20T07:13:31;101930.94;;;24.89;32.29
50854;BME280;44154;45.506;-122.806;2023-04-20T07:15:57;101930.88;;;24.77;32.28
50854;BME280;44154;45.506;-122.806;2023-04-20T07:18:23;101928.44;;;24.69;32.44
50854;BME280;44154;45.506;-122.806;2023-04-20T07:20:51;101937.28;;;24.71;32.31
50854;BME280;44154;45.506;-122.806;2023-04-20T07:23:17;101936.53;;;24.64;32.28
50854;BME280;44154;45.506;-122.806;2023-04-20T07:25:43;101938.03;;;24.59;32.25
50854;BME280;44154;45.506;-122.806;2023-04-20T07:28:09;101935.97;;;24.55;32.25
50854;BME280;44154;45.506;-122.806;2023-04-20T07:30:36;101947.56;;;24.50;32.32
50854;BME280;44154;45.506;-122.806;2023-04-20T07:33:05;101947.44;;;24.45;32.35
50854;BME280;44154;45.506;-122.806;2023-04-20T07:35:32;101950.69;;;24.61;32.71
50854;BME280;44154;45.506;-122.806;2023-04-20T07:37:58;101944.13;;;24.80;32.86
50854;BME280;44154;45.506;-122.806;2023-04-20T07:40:24;101942.34;;;25.04;32.29
50854;BME280;44154;45.506;-122.806;2023-04-20T07:42:50;101933.25;;;25.22;32.36
50854;BME280;44154;45.506;-122.806;2023-04-20T07:45:16;101929.16;;;25.13;32.41
50854;BME280;44154;45.506;-122.806;2023-04-20T07:47:43;101950.72;;;25.09;32.27
50854;BME280;44154;45.506;-122.806;2023-04-20T07:50:12;101941.06;;;24.88;32.05
50854;BME280;44154;45.506;-122.806;2023-04-20T07:52:38;101941.84;;;24.77;32.22
50854;BME280;44154;45.506;-122.806;2023-04-20T07:55:05;101949.88;;;24.72;32.24
50854;BME280;44154;45.506;-122.806;2023-04-20T07:57:33;101965.56;;;24.65;32.07
50854;BME280;44154;45.506;-122.806;2023-04-20T08:00:00;101963.09;;;24.56;32.10
50854;BME280;44154;45.506;-122.806;2023-04-20T08:02:26;101951.84;;;24.46;32.12
50854;BME280;44154;45.506;-122.806;2023-04-20T08:04:53;101959.38;;;24.51;32.03
50854;BME280;44154;45.506;-122.806;2023-04-20T08:07:19;101951.44;;;24.42;32.29
50854;BME280;44154;45.506;-122.806;2023-04-20T08:09:45;101964.91;;;24.44;32.31
50854;BME280;44154;45.506;-122.806;2023-04-20T08:12:11;101963.44;;;24.67;32.54
50854;BME280;44154;45.506;-122.806;2023-04-20T08:14:37;101937.06;;;24.72;32.13
50854;BME280;44154;45.506;-122.806;2023-04-20T08:17:05;101961.34;;;25.18;31.95
50854;BME280;44154;45.506;-122.806;2023-04-20T08:19:31;101946.81;;;25.17;32.07
50854;BME280;44154;45.506;-122.806;2023-04-20T08:21:58;101959.69;;;25.17;31.80
50854;BME280;44154;45.506;-122.806;2023-04-20T08:24:24;101963.88;;;25.01;31.85
50854;BME280;44154;45.506;-122.806;2023-04-20T08:26:50;101960.25;;;24.88;31.69
50854;BME280;44154;45.506;-122.806;2023-04-20T08:29:16;101951.09;;;24.76;31.45
50854;BME280;44154;45.506;-122.806;2023-04-20T08:31:43;101965.41;;;24.78;31.42
50854;BME280;44154;45.506;-122.806;2023-04-20T08:34:10;101961.28;;;24.69;31.91
50854;BME280;44154;45.506;-122.806;2023-04-20T08:36:36;101956.75;;;24.63;31.67
50854;BME280;44154;45.506;-122.806;2023-04-20T08:39:08;101950.47;;;24.55;32.03
50854;BME280;44154;45.506;-122.806;2023-04-20T08:41:35;101959.28;;;24.57;32.00
50854;BME280;44154;45.506;-122.806;2023-04-20T08:44:02;101948.47;;;24.44;31.96
50854;BME280;44154;45.506;-122.806;2023-04-20T08:46:29;101956.47;;;24.46;32.36
50854;BME280;44154;45.506;-122.806;2023-04-20T08:48:56;101941.88;;;24.33;32.74
50854;BME280;44154;45.506;-122.806;2023-04-20T08:51:23;101945.00;;;24.55;32.96
50854;BME280;44154;45.506;-122.806;2023-04-20T08:53:49;101952.78;;;24.77;32.69
50854;BME280;44154;45.506;-122.806;2023-04-20T08:56:16;101966.69;;;24.94;32.70
50854;BME280;44154;45.506;-122.806;2023-04-20T08:58:42;101948.81;;;24.91;32.51
50854;BME280;44154;45.506;-122.806;2023-04-20T09:01:10;101952.72;;;24.84;32.55
50854;BME280;44154;45.506;-122.806;2023-04-20T09:03:40;101968.16;;;24.78;32.33
50854;BME280;44154;45.506;-122.806;2023-04-20T09:06:15;101975.22;;;24.67;32.73
50854;BME280;44154;45.506;-122.806;2023-04-20T09:08:43;101967.28;;;24.59;32.52
50854;BME280;44154;45.506;-122.806;2023-04-20T09:11:27;101944.75;;;24.38;32.41
50854;BME280;44154;45.506;-122.806;2023-04-20T09:14:08;101960.72;;;24.41;32.65
50854;BME280;44154;45.506;-122.806;2023-04-20T09:16:55;101954.19;;;24.42;32.78
50854;BME280;44154;45.506;-122.806;2023-04-20T09:19:30;101953.81;;;24.57;32.80
50854;BME280;44154;45.506;-122.806;2023-04-20T09:21:58;101953.25;;;24.74;32.38
50854;BME280;44154;45.506;-122.806;2023-04-20T09:24:34;101953.38;;;24.98;31.86
50854;BME280;44154;45.506;-122.806;2023-04-20T09:27:22;101933.78;;;24.82;31.78
50854;BME280;44154;45.506;-122.806;2023-04-20T09:30:01;101947.31;;;24.77;31.77
50854;BME280;44154;45.506;-122.806;2023-04-20T09:32:28;101965.56;;;24.65;31.86
50854;BME280;44154;45.506;-122.806;2023-04-20T09:34:55;101947.19;;;24.47;32.15
50854;BME280;44154;45.506;-122.806;2023-04-20T09:37:21;101954.94;;;24.50;31.66
50854;BME280;44154;45.506;-122.806;2023-04-20T09:39:48;101961.13;;;24.45;31.85
50854;BME280;44154;45.506;-122.806;2023-04-20T09:42:15;101953.59;;;24.40;31.61
50854;BME280;44154;45.506;-122.806;2023-04-20T09:44:42;101948.63;;;24.31;31.85
50854;BME280;44154;45.506;-122.806;2023-04-20T09:47:15;101950.69;;;24.35;32.40
50854;BME280;44154;45.506;-122.806;2023-04-20T09:49:46;101953.66;;;24.52;32.13
50854;BME280;44154;45.506;-122.806;2023-04-20T09:52:16;101960.84;;;24.72;31.95
50854;BME280;44154;45.506;-122.806;2023-04-20T09:54:46;101960.72;;;24.85;31.40
50854;BME280;44154;45.506;-122.806;2023-04-20T09:57:12;101963.50;;;24.79;31.37
50854;BME280;44154;45.506;-122.806;2023-04-20T09:59:45;101956.97;;;24.61;31.46
50854;BME280;44154;45.506;-122.806;2023-04-20T10:02:11;101962.69;;;24.59;31.75
50854;BME280;44154;45.506;-122.806;2023-04-20T10:04:54;101968.16;;;24.59;32.32
50854;BME280;44154;45.506;-122.806;2023-04-20T10:07:25;101956.88;;;24.49;32.70
50854;BME280;44154;45.506;-122.806;2023-04-20T10:10:11;101971.16;;;24.51;33.61
50854;BME280;44154;45.506;-122.806;2023-04-20T10:12:55;101969.56;;;24.44;34.28
50854;BME280;44154;45.506;-122.806;2023-04-20T10:15:22;101963.09;;;24.38;34.23
50854;BME280;44154;45.506;-122.806;2023-04-20T10:17:52;101950.59;;;24.23;36.19
50854;BME280;44154;45.506;-122.806;2023-04-20T10:20:24;101962.53;;;24.29;36.44
50854;BME280;44154;45.506;-122.806;2023-04-20T10:22:52;101959.13;;;24.34;35.57
50854;BME280;44154;45.506;-122.806;2023-04-20T10:25:23;101959.16;;;24.52;34.61
50854;BME280;44154;45.506;-122.806;2023-04-20T10:27:59;101961.06;;;24.52;34.17
50854;BME280;44154;45.506;-122.806;2023-04-20T10:30:30;101968.34;;;24.58;34.50
50854;BME280;44154;45.506;-122.806;2023-04-20T10:35:49;101971.22;;;24.45;34.70
50854;BME280;44154;45.506;-122.806;2023-04-20T10:38:27;101962.25;;;24.37;34.46
50854;BME280;44154;45.506;-122.806;2023-04-20T10:40:55;101971.28;;;24.38;34.76
50854;BME280;44154;45.506;-122.806;2023-04-20T10:43:21;101962.81;;;24.21;34.88
50854;BME280;44154;45.506;-122.806;2023-04-20T10:45:48;101972.16;;;24.13;36.28
50854;BME280;44154;45.506;-122.806;2023-04-20T10:48:15;101978.34;;;24.02;35.94
50854;BME280;44154;45.506;-122.806;2023-04-20T10:50:41;101982.41;;;24.18;35.70
50854;BME280;44154;45.506;-122.806;2023-04-20T10:53:22;101990.38;;;24.45;35.58
50854;BME280;44154;45.506;-122.806;2023-04-20T10:55:58;101961.13;;;24.45;34.63
50854;BME280;44154;45.506;-122.806;2023-04-20T10:58:25;101982.50;;;24.55;34.32
50854;BME280;44154;45.506;-122.806;2023-04-20T11:01:01;101976.63;;;24.51;34.68
50854;BME280;44154;45.506;-122.806;2023-04-20T11:03:28;101976.03;;;24.49;34.54
50854;BME280;44154;45.506;-122.806;2023-04-20T11:05:56;101981.78;;;24.41;34.78
50854;BME280;44154;45.506;-122.806;2023-04-20T11:08:41;101984.41;;;24.29;34.94
50854;BME280;44154;45.506;-122.806;2023-04-20T11:11:22;101995.81;;;24.26;34.98
50854;BME280;44154;45.506;-122.806;2023-04-20T11:14:07;101992.94;;;24.14;35.61
50854;BME280;44154;45.506;-122.806;2023-04-20T11:16:34;101974.97;;;24.00;35.37
50854;BME280;44154;45.506;-122.806;2023-04-20T11:19:01;102000.88;;;24.22;35.22
50854;BME280;44154;45.506;-122.806;2023-04-20T11:21:37;101995.19;;;24.49;35.33
50854;BME280;44154;45.506;-122.806;2023-04-20T11:24:15;101987.97;;;24.55;34.86
50854;BME280;44154;45.506;-122.806;2023-04-20T11:26:43;101982.03;;;24.58;34.35
50854;BME280;44154;45.506;-122.806;2023-04-20T11:29:09;101986.66;;;24.57;34.43
50854;BME280;44154;45.506;-122.806;2023-04-20T11:31:36;101985.06;;;24.50;34.45
50854;BME280;44154;45.506;-122.806;2023-04-20T11:34:02;101980.50;;;24.44;34.62
50854;BME280;44154;45.506;-122.806;2023-04-20T11:36:29;101972.19;;;24.32;34.61
50854;BME280;44154;45.506;-122.806;2023-04-20T11:39:06;101962.44;;;24.17;34.90
50854;BME280;44154;45.506;-122.806;2023-04-20T11:41:34;101978.19;;;24.22;35.33
50854;BME280;44154;45.506;-122.806;2023-04-20T11:44:04;101976.53;;;24.14;35.32
50854;BME280;44154;45.506;-122.806;2023-04-20T11:46:33;101965.78;;;24.19;34.98
50854;BME280;44154;45.506;-122.806;2023-04-20T11:49:02;101956.56;;;24.39;35.07
50854;BME280;44154;45.506;-122.806;2023-04-20T11:51:29;101956.41;;;24.52;34.91
50854;BME280;44154;45.506;-122.806;2023-04-20T11:53:56;101959.97;;;24.53;34.54
50854;BME280;44154;45.506;-122.806;2023-04-20T11:56:22;101967.34;;;24.52;34.86
50854;BME280;44154;45.506;-122.806;2023-04-20T11:58:48;101918.22;;;24.20;34.47
50854;BME280;44154;45.506;-122.806;2023-04-20T12:01:14;101963.03;;;24.45;34.51
50854;BME280;44154;45.506;-122.806;2023-04-20T12:03:41;101959.28;;;24.39;34.59
50854;BME280;44154;45.506;-122.806;2023-04-20T12:06:07;101960.41;;;24.31;34.90
50854;BME280;44154;45.506;-122.806;2023-04-20T12:08:34;101949.41;;;24.13;35.24
50854;BME280;44154;45.506;-122.806;2023-04-20T12:11:00;101956.22;;;24.29;34.42
50854;BME280;44154;45.506;-122.806;2023-04-20T12:13:26;101958.88;;;24.61;34.01
50854;BME280;44154;45.506;-122.806;2023-04-20T12:15:52;101948.69;;;24.68;34.16
50854;BME280;44154;45.506;-122.806;2023-04-20T12:18:19;101957.91;;;24.73;34.22
50854;BME280;44154;45.506;-122.806;2023-04-20T12:20:45;101935.09;;;24.54;34.18
50854;BME280;44154;45.506;-122.806;2023-04-20T12:23:12;101932.59;;;24.53;34.05
50854;BME280;44154;45.506;-122.806;2023-04-20T12:25:38;101944.19;;;24.55;34.23